sensor_id;sensor_type;location;lat;lon;timestamp;pressure;altitude;pressure_sealevel;temperature;humidity
72359;BME280;60317;48.880;-0.862;2022-08-25T00:01:29;100409.09;;;22.36;70.04
72359;BME280;60317;48.880;-0.862;2022-08-25T00:03:58;100402.00;;;22.35;70.27
72359;BME280;60317;48.880;-0.862;2022-08-25T00:06:25;100389.53;;;22.34;70.20
72359;BME280;60317;48.880;-0.862;2022-08-25T00:08:51;100380.59;;;22.34;70.16
72359;BME280;60317;48.880;-0.862;2022-08-25T00:11:20;100378.75;;;22.34;70.31
72359;BME280;60317;48.880;-0.862;2022-08-25T00:13:49;100366.16;;;22.35;70.11
72359;BME280;60317;48.880;-0.862;2022-08-25T00:16:17;100361.59;;;22.35;70.13
72359;BME280;60317;48.880;-0.862;2022-08-25T00:18:47;100358.91;;;22.35;70.17
72359;BME280;60317;48.880;-0.862;2022-08-25T00:21:15;100358.06;;;22.35;70.28
72359;BME280;60317;48.880;-0.862;2022-08-25T00:23:42;100343.75;;;22.34;70.22
72359;BME280;60317;48.880;-0.862;2022-08-25T00:26:10;100337.53;;;22.34;70.41
72359;BME280;60317;48.880;-0.862;2022-08-25T00:28:37;100336.69;;;22.33;70.42
72359;BME280;60317;48.880;-0.862;2022-08-25T00:31:05;100324.06;;;22.34;70.30
72359;BME280;60317;48.880;-0.862;2022-08-25T00:33:32;100319.53;;;22.34;70.41
72359;BME280;60317;48.880;-0.862;2022-08-25T00:36:00;100321.53;;;22.32;70.34
72359;BME280;60317;48.880;-0.862;2022-08-25T00:38:27;100321.53;;;22.32;70.46
72359;BME280;60317;48.880;-0.862;2022-08-25T00:40:53;100328.91;;;22.30;70.46
72359;BME280;60317;48.880;-0.862;2022-08-25T00:43:21;100334.28;;;22.30;70.46
72359;BME280;60317;48.880;-0.862;2022-08-25T00:45:47;100330.75;;;22.30;70.46
72359;BME280;60317;48.880;-0.862;2022-08-25T00:48:14;100334.41;;;22.29;70.67
72359;BME280;60317;48.880;-0.862;2022-08-25T00:50:41;100331.72;;;22.29;70.63
72359;BME280;60317;48.880;-0.862;2022-08-25T00:53:09;100327.22;;;22.29;70.72
72359;BME280;60317;48.880;-0.862;2022-08-25T00:55:37;100323.53;;;22.30;70.49
72359;BME280;60317;48.880;-0.862;2022-08-25T00:58:07;100321.84;;;22.29;70.46
72359;BME280;60317;48.880;-0.862;2022-08-25T01:00:37;100303.66;;;22.31;70.65
72359;BME280;60317;48.880;-0.862;2022-08-25T01:03:05;100304.66;;;22.30;70.71
72359;BME280;60317;48.880;-0.862;2022-08-25T01:05:32;100297.59;;;22.29;70.54
72359;BME280;60317;48.880;-0.862;2022-08-25T01:08:00;100296.59;;;22.30;70.62
72359;BME280;60317;48.880;-0.862;2022-08-25T01:10:29;100291.03;;;22.32;70.72
72359;BME280;60317;48.880;-0.862;2022-08-25T01:13:00;100299.28;;;22.30;70.88
72359;BME280;60317;48.880;-0.862;2022-08-25T01:15:28;100291.22;;;22.30;70.89
72359;BME280;60317;48.880;-0.862;2022-08-25T01:17:56;100292.22;;;22.29;70.99
72359;BME280;60317;48.880;-0.862;2022-08-25T01:20:27;100294.03;;;22.29;70.87
72359;BME280;60317;48.880;-0.862;2022-08-25T01:22:57;100275.34;;;22.27;71.04
72359;BME280;60317;48.880;-0.862;2022-08-25T01:25:32;100266.44;;;22.27;71.01
72359;BME280;60317;48.880;-0.862;2022-08-25T01:28:02;100261.06;;;22.27;70.85
72359;BME280;60317;48.880;-0.862;2022-08-25T01:30:29;100266.25;;;22.28;70.85
72359;BME280;60317;48.880;-0.862;2022-08-25T01:32:56;100262.72;;;22.28;70.71
72359;BME280;60317;48.880;-0.862;2022-08-25T01:35:22;100261.72;;;22.29;70.79
72359;BME280;60317;48.880;-0.862;2022-08-25T01:37:49;100268.97;;;22.28;70.82
72359;BME280;60317;48.880;-0.862;2022-08-25T01:40:17;100260.03;;;22.28;70.98
72359;BME280;60317;48.880;-0.862;2022-08-25T01:42:51;100253.81;;;22.27;70.96
72359;BME280;60317;48.880;-0.862;2022-08-25T01:45:19;100264.59;;;22.27;71.08
72359;BME280;60317;48.880;-0.862;2022-08-25T01:47:46;100271.81;;;22.27;70.99
72359;BME280;60317;48.880;-0.862;2022-08-25T01:50:13;100269.13;;;22.27;71.07
72359;BME280;60317;48.880;-0.862;2022-08-25T01:52:46;100268.28;;;22.26;71.08
72359;BME280;60317;48.880;-0.862;2022-08-25T01:55:16;100277.03;;;22.28;70.86
72359;BME280;60317;48.880;-0.862;2022-08-25T01:57:43;100300.59;;;22.26;71.01
72359;BME280;60317;48.880;-0.862;2022-08-25T02:00:10;100300.59;;;22.26;71.22
72359;BME280;60317;48.880;-0.862;2022-08-25T02:02:37;100297.72;;;22.28;71.39
72359;BME280;60317;48.880;-0.862;2022-08-25T02:05:08;100286.13;;;22.27;71.64
72359;BME280;60317;48.880;-0.862;2022-08-25T02:07:35;100273.66;;;22.26;71.69
72359;BME280;60317;48.880;-0.862;2022-08-25T02:10:04;100279.06;;;22.26;71.48
72359;BME280;60317;48.880;-0.862;2022-08-25T02:12:33;100281.75;;;22.26;71.58
72359;BME280;60317;48.880;-0.862;2022-08-25T02:15:00;100270.97;;;22.26;71.52
72359;BME280;60317;48.880;-0.862;2022-08-25T02:17:27;100252.97;;;22.27;71.60
72359;BME280;60317;48.880;-0.862;2022-08-25T02:19:53;100241.19;;;22.28;71.80
72359;BME280;60317;48.880;-0.862;2022-08-25T02:22:20;100250.28;;;22.27;71.88
72359;BME280;60317;48.880;-0.862;2022-08-25T02:24:47;100254.81;;;22.26;72.05
72359;BME280;60317;48.880;-0.862;2022-08-25T02:27:13;100262.91;;;22.26;72.12
72359;BME280;60317;48.880;-0.862;2022-08-25T02:29:41;100275.66;;;22.24;72.26
72359;BME280;60317;48.880;-0.862;2022-08-25T02:32:09;100278.34;;;22.24;71.93
72359;BME280;60317;48.880;-0.862;2022-08-25T02:34:36;100286.41;;;22.24;72.01
72359;BME280;60317;48.880;-0.862;2022-08-25T02:37:02;100309.63;;;22.25;72.12
72359;BME280;60317;48.880;-0.862;2022-08-25T02:39:29;100377.94;;;22.24;72.26
72359;BME280;60317;48.880;-0.862;2022-08-25T02:41:55;100418.19;;;22.26;72.59
72359;BME280;60317;48.880;-0.862;2022-08-25T02:44:22;100380.63;;;22.24;72.82
72359;BME280;60317;48.880;-0.862;2022-08-25T02:46:50;100345.94;;;22.21;73.29
72359;BME280;60317;48.880;-0.862;2022-08-25T02:49:16;100363.38;;;22.17;73.64
72359;BME280;60317;48.880;-0.862;2022-08-25T02:51:43;100382.22;;;22.17;74.05
72359;BME280;60317;48.880;-0.862;2022-08-25T02:54:09;100412.69;;;22.18;74.16
72359;BME280;60317;48.880;-0.862;2022-08-25T02:56:36;100426.13;;;22.18;74.19
72359;BME280;60317;48.880;-0.862;2022-08-25T02:59:03;100420.91;;;22.16;74.55
72359;BME280;60317;48.880;-0.862;2022-08-25T03:01:30;100412.97;;;22.14;74.42
72359;BME280;60317;48.880;-0.862;2022-08-25T03:03:59;100386.19;;;22.13;74.46
72359;BME280;60317;48.880;-0.862;2022-08-25T03:06:26;100366.31;;;22.14;74.87
72359;BME280;60317;48.880;-0.862;2022-08-25T03:08:53;100342.09;;;22.14;74.74
72359;BME280;60317;48.880;-0.862;2022-08-25T03:11:20;100341.16;;;22.15;74.72
72359;BME280;60317;48.880;-0.862;2022-08-25T03:13:47;100362.97;;;22.12;75.18
72359;BME280;60317;48.880;-0.862;2022-08-25T03:16:13;100360.25;;;22.12;74.71
72359;BME280;60317;48.880;-0.862;2022-08-25T03:18:41;100384.50;;;22.12;75.07
72359;BME280;60317;48.880;-0.862;2022-08-25T03:21:11;100403.34;;;22.12;75.13
72359;BME280;60317;48.880;-0.862;2022-08-25T03:23:38;100407.72;;;22.13;74.94
72359;BME280;60317;48.880;-0.862;2022-08-25T03:26:05;100420.31;;;22.12;75.26
72359;BME280;60317;48.880;-0.862;2022-08-25T03:28:32;100417.47;;;22.14;75.24
72359;BME280;60317;48.880;-0.862;2022-08-25T03:30:59;100409.69;;;22.11;75.41
72359;BME280;60317;48.880;-0.862;2022-08-25T03:33:27;100412.53;;;22.09;75.39
72359;BME280;60317;48.880;-0.862;2022-08-25T03:35:54;100409.13;;;22.07;75.58
72359;BME280;60317;48.880;-0.862;2022-08-25T03:38:22;100406.59;;;22.06;75.71
72359;BME280;60317;48.880;-0.862;2022-08-25T03:40:50;100404.19;;;22.03;75.90
72359;BME280;60317;48.880;-0.862;2022-08-25T03:43:18;100403.47;;;22.01;75.95
72359;BME280;60317;48.880;-0.862;2022-08-25T03:45:46;100415.53;;;21.97;76.06
72359;BME280;60317;48.880;-0.862;2022-08-25T03:48:14;100410.88;;;21.99;75.73
72359;BME280;60317;48.880;-0.862;2022-08-25T03:50:43;100415.69;;;21.95;75.96
72359;BME280;60317;48.880;-0.862;2022-08-25T03:53:18;100419.06;;;21.97;75.60
72359;BME280;60317;48.880;-0.862;2022-08-25T03:55:46;100420.50;;;21.91;75.67
72359;BME280;60317;48.880;-0.862;2022-08-25T03:58:13;100415.13;;;21.91;75.60
72359;BME280;60317;48.880;-0.862;2022-08-25T04:00:40;100420.34;;;21.93;75.39
72359;BME280;60317;48.880;-0.862;2022-08-25T04:03:07;100422.75;;;21.96;75.11
72359;BME280;60317;48.880;-0.862;2022-08-25T04:05:33;100419.94;;;21.98;75.16
72359;BME280;60317;48.880;-0.862;2022-08-25T04:08:00;100407.31;;;21.98;75.22
72359;BME280;60317;48.880;-0.862;2022-08-25T04:10:28;100395.56;;;21.99;75.05
72359;BME280;60317;48.880;-0.862;2022-08-25T04:12:55;100386.78;;;21.97;75.23
72359;BME280;60317;48.880;-0.862;2022-08-25T04:15:22;100374.19;;;21.98;75.02
72359;BME280;60317;48.880;-0.862;2022-08-25T04:17:54;100372.19;;;22.00;75.04
72359;BME280;60317;48.880;-0.862;2022-08-25T04:20:20;100356.75;;;22.02;74.85
72359;BME280;60317;48.880;-0.862;2022-08-25T04:22:47;100359.44;;;22.02;74.66
72359;BME280;60317;48.880;-0.862;2022-08-25T04:25:13;100353.91;;;22.03;74.58
72359;BME280;60317;48.880;-0.862;2022-08-25T04:27:40;100347.69;;;22.03;74.49
72359;BME280;60317;48.880;-0.862;2022-08-25T04:30:09;100346.00;;;22.02;74.51
72359;BME280;60317;48.880;-0.862;2022-08-25T04:32:36;100352.34;;;22.01;74.45
72359;BME280;60317;48.880;-0.862;2022-08-25T04:35:03;100357.72;;;22.01;74.38
72359;BME280;60317;48.880;-0.862;2022-08-25T04:37:30;100352.34;;;22.01;74.35
72359;BME280;60317;48.880;-0.862;2022-08-25T04:39:57;100345.16;;;22.01;74.34
72359;BME280;60317;48.880;-0.862;2022-08-25T04:42:24;100346.00;;;22.02;74.18
72359;BME280;60317;48.880;-0.862;2022-08-25T04:44:50;100346.00;;;22.02;74.24
72359;BME280;60317;48.880;-0.862;2022-08-25T04:47:18;100346.00;;;22.02;74.07
72359;BME280;60317;48.880;-0.862;2022-08-25T04:49:45;100360.13;;;22.04;74.21
72359;BME280;60317;48.880;-0.862;2022-08-25T04:52:11;100362.81;;;22.04;74.16
72359;BME280;60317;48.880;-0.862;2022-08-25T04:54:40;100364.66;;;22.03;74.10
72359;BME280;60317;48.880;-0.862;2022-08-25T04:57:06;100382.66;;;22.03;73.97
72359;BME280;60317;48.880;-0.862;2022-08-25T04:59:33;100379.84;;;22.04;74.16
72359;BME280;60317;48.880;-0.862;2022-08-25T05:02:00;100377.00;;;22.06;74.08
72359;BME280;60317;48.880;-0.862;2022-08-25T05:04:29;100377.16;;;22.04;74.08
72359;BME280;60317;48.880;-0.862;2022-08-25T05:06:56;100378.97;;;22.04;74.16
72359;BME280;60317;48.880;-0.862;2022-08-25T05:09:23;100382.66;;;22.03;74.23
72359;BME280;60317;48.880;-0.862;2022-08-25T05:11:50;100385.50;;;22.01;74.30
72359;BME280;60317;48.880;-0.862;2022-08-25T05:14:17;100385.50;;;22.01;74.20
72359;BME280;60317;48.880;-0.862;2022-08-25T05:16:44;100392.59;;;22.02;74.10
72359;BME280;60317;48.880;-0.862;2022-08-25T05:19:12;100393.44;;;22.03;73.98
72359;BME280;60317;48.880;-0.862;2022-08-25T05:21:39;100394.97;;;22.05;73.93
72359;BME280;60317;48.880;-0.862;2022-08-25T05:24:07;100383.38;;;22.05;74.13
72359;BME280;60317;48.880;-0.862;2022-08-25T05:26:34;100386.06;;;22.05;73.97
72359;BME280;60317;48.880;-0.862;2022-08-25T05:29:02;100378.69;;;22.07;73.80
72359;BME280;60317;48.880;-0.862;2022-08-25T05:31:29;100362.81;;;22.04;74.03
72359;BME280;60317;48.880;-0.862;2022-08-25T05:33:57;100363.53;;;22.06;73.98
72359;BME280;60317;48.880;-0.862;2022-08-25T05:36:25;100360.13;;;22.04;74.00
72359;BME280;60317;48.880;-0.862;2022-08-25T05:38:53;100355.75;;;22.03;73.98
72359;BME280;60317;48.880;-0.862;2022-08-25T05:41:24;100350.22;;;22.04;74.02
72359;BME280;60317;48.880;-0.862;2022-08-25T05:43:51;100356.47;;;22.05;73.97
72359;BME280;60317;48.880;-0.862;2022-08-25T05:46:18;100368.06;;;22.05;73.88
72359;BME280;60317;48.880;-0.862;2022-08-25T05:48:46;100363.53;;;22.06;73.88
72359;BME280;60317;48.880;-0.862;2022-08-25T05:51:13;100358.16;;;22.06;74.04
72359;BME280;60317;48.880;-0.862;2022-08-25T05:53:44;100357.31;;;22.05;74.24
72359;BME280;60317;48.880;-0.862;2022-08-25T05:56:12;100364.66;;;22.03;74.14
72359;BME280;60317;48.880;-0.862;2022-08-25T05:58:40;100373.59;;;22.04;74.21
72359;BME280;60317;48.880;-0.862;2022-08-25T06:01:07;100380.81;;;22.03;74.26
72359;BME280;60317;48.880;-0.862;2022-08-25T06:03:34;100383.38;;;22.05;74.13
72359;BME280;60317;48.880;-0.862;2022-08-25T06:06:05;100384.34;;;22.04;74.10
72359;BME280;60317;48.880;-0.862;2022-08-25T06:08:31;100384.34;;;22.04;74.32
72359;BME280;60317;48.880;-0.862;2022-08-25T06:10:58;100379.97;;;22.03;74.35
72359;BME280;60317;48.880;-0.862;2022-08-25T06:13:26;100381.66;;;22.04;74.26
72359;BME280;60317;48.880;-0.862;2022-08-25T06:15:56;100396.13;;;22.03;74.22
72359;BME280;60317;48.880;-0.862;2022-08-25T06:18:22;100391.56;;;22.03;74.16
72359;BME280;60317;48.880;-0.862;2022-08-25T06:20:49;100389.72;;;22.04;74.10
72359;BME280;60317;48.880;-0.862;2022-08-25T06:23:15;100393.59;;;22.01;74.33
72359;BME280;60317;48.880;-0.862;2022-08-25T06:25:48;100372.91;;;22.02;73.98
72359;BME280;60317;48.880;-0.862;2022-08-25T06:28:15;100366.66;;;22.01;74.28
72359;BME280;60317;48.880;-0.862;2022-08-25T06:30:42;100393.44;;;22.03;74.16
72359;BME280;60317;48.880;-0.862;2022-08-25T06:33:09;100390.91;;;22.01;74.01
72359;BME280;60317;48.880;-0.862;2022-08-25T06:35:40;100397.97;;;22.02;74.15
72359;BME280;60317;48.880;-0.862;2022-08-25T06:38:07;100416.81;;;22.02;74.02
72359;BME280;60317;48.880;-0.862;2022-08-25T06:40:33;100422.19;;;22.02;73.88
72359;BME280;60317;48.880;-0.862;2022-08-25T06:43:00;100429.41;;;22.02;73.96
72359;BME280;60317;48.880;-0.862;2022-08-25T06:45:27;100449.94;;;22.03;74.03
72359;BME280;60317;48.880;-0.862;2022-08-25T06:47:56;100453.47;;;22.03;73.89
72359;BME280;60317;48.880;-0.862;2022-08-25T06:50:22;100467.78;;;22.04;74.15
72359;BME280;60317;48.880;-0.862;2022-08-25T06:52:49;100471.47;;;22.03;73.94
72359;BME280;60317;48.880;-0.862;2022-08-25T06:55:15;100466.94;;;22.03;74.13
72359;BME280;60317;48.880;-0.862;2022-08-25T06:57:42;100468.66;;;22.04;73.94
72359;BME280;60317;48.880;-0.862;2022-08-25T07:00:09;100467.66;;;22.05;73.71
72359;BME280;60317;48.880;-0.862;2022-08-25T07:02:37;100468.66;;;22.04;73.88
72359;BME280;60317;48.880;-0.862;2022-08-25T07:05:06;100479.25;;;22.06;73.84
72359;BME280;60317;48.880;-0.862;2022-08-25T07:07:36;100495.56;;;22.04;74.00
72359;BME280;60317;48.880;-0.862;2022-08-25T07:10:10;100500.94;;;22.04;74.07
72359;BME280;60317;48.880;-0.862;2022-08-25T07:12:37;100486.50;;;22.05;73.94
72359;BME280;60317;48.880;-0.862;2022-08-25T07:15:04;100478.53;;;22.04;74.21
72359;BME280;60317;48.880;-0.862;2022-08-25T07:17:47;100464.13;;;22.05;74.03
72359;BME280;60317;48.880;-0.862;2022-08-25T07:20:16;100461.44;;;22.05;74.14
72359;BME280;60317;48.880;-0.862;2022-08-25T07:22:45;100457.00;;;22.04;73.79
72359;BME280;60317;48.880;-0.862;2022-08-25T07:25:11;100467.78;;;22.04;74.09
72359;BME280;60317;48.880;-0.862;2022-08-25T07:27:39;100464.97;;;22.05;74.04
72359;BME280;60317;48.880;-0.862;2022-08-25T07:30:08;100447.81;;;22.06;73.84
72359;BME280;60317;48.880;-0.862;2022-08-25T07:32:37;100434.34;;;22.06;74.00
72359;BME280;60317;48.880;-0.862;2022-08-25T07:35:08;100440.88;;;22.04;74.49
72359;BME280;60317;48.880;-0.862;2022-08-25T07:37:38;100451.63;;;22.04;74.32
72359;BME280;60317;48.880;-0.862;2022-08-25T07:40:17;100453.47;;;22.03;74.26
72359;BME280;60317;48.880;-0.862;2022-08-25T07:42:44;100445.41;;;22.03;73.96
72359;BME280;60317;48.880;-0.862;2022-08-25T07:45:12;100450.78;;;22.03;74.11
72359;BME280;60317;48.880;-0.862;2022-08-25T07:47:41;100442.88;;;22.02;74.20
72359;BME280;60317;48.880;-0.862;2022-08-25T07:50:09;100439.19;;;22.03;74.42
72359;BME280;60317;48.880;-0.862;2022-08-25T07:52:38;100426.72;;;22.02;74.23
72359;BME280;60317;48.880;-0.862;2022-08-25T07:55:05;100425.72;;;22.03;74.35
72359;BME280;60317;48.880;-0.862;2022-08-25T07:57:38;100435.63;;;22.02;74.36
72359;BME280;60317;48.880;-0.862;2022-08-25T08:00:06;100456.31;;;22.02;74.41
72359;BME280;60317;48.880;-0.862;2022-08-25T08:02:36;100468.78;;;22.03;74.43
72359;BME280;60317;48.880;-0.862;2022-08-25T08:05:03;100465.25;;;22.02;74.12
72359;BME280;60317;48.880;-0.862;2022-08-25T08:07:35;100467.09;;;22.02;74.52
72359;BME280;60317;48.880;-0.862;2022-08-25T08:10:12;100485.94;;;22.02;74.31
72359;BME280;60317;48.880;-0.862;2022-08-25T08:12:59;100487.63;;;22.03;74.39
72359;BME280;60317;48.880;-0.862;2022-08-25T08:15:26;100481.25;;;22.04;74.24
72359;BME280;60317;48.880;-0.862;2022-08-25T08:17:55;100495.69;;;22.03;74.52
72359;BME280;60317;48.880;-0.862;2022-08-25T08:20:24;100497.97;;;21.98;74.55
72359;BME280;60317;48.880;-0.862;2022-08-25T08:22:51;100503.19;;;21.99;74.48
72359;BME280;60317;48.880;-0.862;2022-08-25T08:25:18;100501.50;;;21.98;74.63
72359;BME280;60317;48.880;-0.862;2022-08-25T08:27:53;100509.44;;;22.00;74.40
72359;BME280;60317;48.880;-0.862;2022-08-25T08:30:27;100509.31;;;22.01;74.50
72359;BME280;60317;48.880;-0.862;2022-08-25T08:32:54;100521.88;;;22.01;74.62
72359;BME280;60317;48.880;-0.862;2022-08-25T08:35:37;100512.97;;;22.00;74.50
72359;BME280;60317;48.880;-0.862;2022-08-25T08:38:04;100522.19;;;21.98;74.75
72359;BME280;60317;48.880;-0.862;2022-08-25T08:40:48;100518.50;;;21.99;74.57
72359;BME280;60317;48.880;-0.862;2022-08-25T08:43:20;100519.50;;;21.98;74.43
72359;BME280;60317;48.880;-0.862;2022-08-25T08:45:51;100521.19;;;21.99;74.13
72359;BME280;60317;48.880;-0.862;2022-08-25T08:48:30;100530.13;;;21.99;74.25
72359;BME280;60317;48.880;-0.862;2022-08-25T08:51:05;100527.28;;;22.01;74.26
72359;BME280;60317;48.880;-0.862;2022-08-25T08:53:40;100525.56;;;22.00;74.65
72359;BME280;60317;48.880;-0.862;2022-08-25T08:56:14;100528.28;;;22.00;74.42
72359;BME280;60317;48.880;-0.862;2022-08-25T08:58:43;100530.97;;;22.00;74.62
72359;BME280;60317;48.880;-0.862;2022-08-25T09:01:18;100521.88;;;22.01;74.53
72359;BME280;60317;48.880;-0.862;2022-08-25T09:03:51;100527.28;;;22.01;74.67
72359;BME280;60317;48.880;-0.862;2022-08-25T09:06:24;100530.13;;;21.99;74.67
72359;BME280;60317;48.880;-0.862;2022-08-25T09:08:54;100527.28;;;22.01;74.59
72359;BME280;60317;48.880;-0.862;2022-08-25T09:11:32;100522.75;;;22.01;74.85
72359;BME280;60317;48.880;-0.862;2022-08-25T09:14:10;100538.03;;;22.01;74.80
72359;BME280;60317;48.880;-0.862;2022-08-25T09:16:48;100538.03;;;22.01;74.72
72359;BME280;60317;48.880;-0.862;2022-08-25T09:19:30;100540.59;;;22.02;74.72
72359;BME280;60317;48.880;-0.862;2022-08-25T09:22:04;100535.34;;;22.01;74.85
72359;BME280;60317;48.880;-0.862;2022-08-25T09:25:02;100536.78;;;22.05;74.60
72359;BME280;60317;48.880;-0.862;2022-08-25T09:27:40;100535.22;;;22.02;74.62
72359;BME280;60317;48.880;-0.862;2022-08-25T09:30:14;100534.50;;;22.00;74.76
72359;BME280;60317;48.880;-0.862;2022-08-25T09:32:44;100536.34;;;22.00;74.83
72359;BME280;60317;48.880;-0.862;2022-08-25T09:35:20;100544.28;;;22.01;74.71
72359;BME280;60317;48.880;-0.862;2022-08-25T09:37:56;100534.38;;;22.02;74.64
72359;BME280;60317;48.880;-0.862;2022-08-25T09:40:25;100538.91;;;22.01;74.60
72359;BME280;60317;48.880;-0.862;2022-08-25T09:42:55;100543.28;;;22.02;74.65
72359;BME280;60317;48.880;-0.862;2022-08-25T09:45:35;100536.22;;;22.01;74.72
72359;BME280;60317;48.880;-0.862;2022-08-25T09:50:58;100538.91;;;22.01;74.76
72359;BME280;60317;48.880;-0.862;2022-08-25T09:53:27;100539.75;;;22.02;74.72
72359;BME280;60317;48.880;-0.862;2022-08-25T09:56:02;100542.28;;;22.03;74.63
72359;BME280;60317;48.880;-0.862;2022-08-25T09:58:32;100547.81;;;22.02;74.75
72359;BME280;60317;48.880;-0.862;2022-08-25T10:01:03;100550.53;;;22.02;74.68
72359;BME280;60317;48.880;-0.862;2022-08-25T10:03:31;100548.53;;;22.04;74.60
72359;BME280;60317;48.880;-0.862;2022-08-25T10:06:05;100548.53;;;22.04;74.66
72359;BME280;60317;48.880;-0.862;2022-08-25T10:08:40;100550.38;;;22.03;74.53
72359;BME280;60317;48.880;-0.862;2022-08-25T10:11:32;100550.53;;;22.02;74.72
72359;BME280;60317;48.880;-0.862;2022-08-25T10:14:05;100547.09;;;22.00;74.75
72359;BME280;60317;48.880;-0.862;2022-08-25T10:16:33;100538.91;;;22.01;74.62
72359;BME280;60317;48.880;-0.862;2022-08-25T10:19:06;100546.09;;;22.01;74.65
72359;BME280;60317;48.880;-0.862;2022-08-25T10:21:35;100542.56;;;22.00;74.61
72359;BME280;60317;48.880;-0.862;2022-08-25T10:24:03;100533.53;;;22.01;74.72
72359;BME280;60317;48.880;-0.862;2022-08-25T10:26:39;100529.97;;;22.01;74.67
72359;BME280;60317;48.880;-0.862;2022-08-25T10:29:19;100530.84;;;22.01;74.81
72359;BME280;60317;48.880;-0.862;2022-08-25T10:31:53;100531.69;;;22.02;74.68
72359;BME280;60317;48.880;-0.862;2022-08-25T10:34:31;100524.44;;;22.02;74.53
72359;BME280;60317;48.880;-0.862;2022-08-25T10:37:07;100528.16;;;22.01;74.80
72359;BME280;60317;48.880;-0.862;2022-08-25T10:39:43;100536.91;;;22.03;74.84
72359;BME280;60317;48.880;-0.862;2022-08-25T10:42:21;100526.31;;;22.02;74.81
72359;BME280;60317;48.880;-0.862;2022-08-25T10:45:08;100536.06;;;22.03;74.77
72359;BME280;60317;48.880;-0.862;2022-08-25T10:47:57;100533.25;;;22.04;74.68
72359;BME280;60317;48.880;-0.862;2022-08-25T10:50:33;100533.25;;;22.04;74.74
72359;BME280;60317;48.880;-0.862;2022-08-25T10:53:17;100533.09;;;22.06;74.50
72359;BME280;60317;48.880;-0.862;2022-08-25T10:55:55;100528.56;;;22.06;74.76
72359;BME280;60317;48.880;-0.862;2022-08-25T10:58:37;100534.78;;;22.07;74.56
72359;BME280;60317;48.880;-0.862;2022-08-25T11:01:18;100532.09;;;22.07;74.82
72359;BME280;60317;48.880;-0.862;2022-08-25T11:03:56;100532.09;;;22.07;74.54
72359;BME280;60317;48.880;-0.862;2022-08-25T11:06:33;100536.50;;;22.08;74.48
72359;BME280;60317;48.880;-0.862;2022-08-25T11:09:06;100532.09;;;22.07;74.38
72359;BME280;60317;48.880;-0.862;2022-08-25T11:11:36;100531.97;;;22.08;74.37
72359;BME280;60317;48.880;-0.862;2022-08-25T11:14:08;100536.50;;;22.08;74.20
72359;BME280;60317;48.880;-0.862;2022-08-25T11:16:40;100539.19;;;22.08;74.21
72359;BME280;60317;48.880;-0.862;2022-08-25T11:19:15;100535.50;;;22.09;73.98
72359;BME280;60317;48.880;-0.862;2022-08-25T11:21:49;100538.31;;;22.07;74.20
72359;BME280;60317;48.880;-0.862;2022-08-25T11:24:31;100544.59;;;22.08;74.05
72359;BME280;60317;48.880;-0.862;2022-08-25T11:27:04;100540.03;;;22.08;74.18
72359;BME280;60317;48.880;-0.862;2022-08-25T11:29:34;100541.72;;;22.09;74.16
72359;BME280;60317;48.880;-0.862;2022-08-25T11:32:06;100546.28;;;22.09;73.96
72359;BME280;60317;48.880;-0.862;2022-08-25T11:34:35;100553.34;;;22.10;73.99
72359;BME280;60317;48.880;-0.862;2022-08-25T11:37:18;100547.84;;;22.11;73.93
72359;BME280;60317;48.880;-0.862;2022-08-25T11:42:59;100553.34;;;22.10;73.84
72359;BME280;60317;48.880;-0.862;2022-08-25T11:45:44;100557.03;;;22.09;74.11
72359;BME280;60317;48.880;-0.862;2022-08-25T11:48:28;100564.97;;;22.10;74.09
72359;BME280;60317;48.880;-0.862;2022-08-25T11:51:03;100551.50;;;22.10;74.10
72359;BME280;60317;48.880;-0.862;2022-08-25T11:53:32;100563.09;;;22.11;74.03
72359;BME280;60317;48.880;-0.862;2022-08-25T11:56:01;100566.69;;;22.11;74.15
72359;BME280;60317;48.880;-0.862;2022-08-25T11:58:41;100561.28;;;22.11;73.88
72359;BME280;60317;48.880;-0.862;2022-08-25T12:01:57;100566.81;;;22.10;73.91
72359;BME280;60317;48.880;-0.862;2022-08-25T12:04:13;100570.34;;;22.10;74.10
72359;BME280;60317;48.880;-0.862;2022-08-25T12:12:56;100571.06;;;22.12;73.87
72359;BME280;60317;48.880;-0.862;2022-08-25T12:15:27;100572.66;;;22.15;74.11
72359;BME280;60317;48.880;-0.862;2022-08-25T12:18:11;100568.66;;;22.09;74.09
72359;BME280;60317;48.880;-0.862;2022-08-25T12:23:34;100580.97;;;22.12;74.06
72359;BME280;60317;48.880;-0.862;2022-08-25T12:26:06;100582.44;;;22.16;74.20
72359;BME280;60317;48.880;-0.862;2022-08-25T12:28:44;100586.13;;;22.15;73.98
72359;BME280;60317;48.880;-0.862;2022-08-25T12:31:20;100587.22;;;22.12;73.89
72359;BME280;60317;48.880;-0.862;2022-08-25T12:34:01;100595.28;;;22.12;74.07
72359;BME280;60317;48.880;-0.862;2022-08-25T12:36:32;100589.91;;;22.12;74.10
72359;BME280;60317;48.880;-0.862;2022-08-25T12:39:16;100588.22;;;22.11;74.20
72359;BME280;60317;48.880;-0.862;2022-08-25T12:41:54;100590.75;;;22.13;73.72
72359;BME280;60317;48.880;-0.862;2022-08-25T12:44:34;100595.03;;;22.15;74.32
72359;BME280;60317;48.880;-0.862;2022-08-25T12:47:06;100606.34;;;22.09;74.28
72359;BME280;60317;48.880;-0.862;2022-08-25T12:49:36;100596.41;;;22.10;74.58
72359;BME280;60317;48.880;-0.862;2022-08-25T12:52:05;100608.03;;;22.10;74.78
72359;BME280;60317;48.880;-0.862;2022-08-25T12:54:44;100606.19;;;22.11;74.49
72359;BME280;60317;48.880;-0.862;2022-08-25T13:00:09;100608.88;;;22.11;74.75
72359;BME280;60317;48.880;-0.862;2022-08-25T13:02:51;100601.66;;;22.11;74.55
72359;BME280;60317;48.880;-0.862;2022-08-25T13:05:39;100600.78;;;22.11;74.69
72359;BME280;60317;48.880;-0.862;2022-08-25T13:08:25;100604.47;;;22.10;74.69
72359;BME280;60317;48.880;-0.862;2022-08-25T13:11:04;100608.88;;;22.11;74.51
72359;BME280;60317;48.880;-0.862;2022-08-25T13:13:42;100609.75;;;22.11;74.71
72359;BME280;60317;48.880;-0.862;2022-08-25T13:16:16;100614.25;;;22.11;74.64